Cavok V — PB7130 — position and weather

sailwx.info

Track history (hours):
 
Tides and Currents Weather Stations Pressure Air Temp Water Temp Dewpoint Dewpoint Depression Visibility Wind Speed Wind Dir Waves Ship Positions

Cavok V

Last reported at 2017-Jan-23 12:32 UTC. Time now 2017-Mar-25 19:46 UTC.
Position N 51°47' E 004°38'.
Warning: this ship's position is months out of date.

Type: Sailing vessel. MMSI: 244690846.

Date/timePositionNaut miles runAvg speedWind from/ knotsBaromVisibWave heightAir tempDewpointWater temp
2017-Jan-23 12:32N 51°47' E 004°38'8 7.9
2017-Jan-23 11:33N 51°42' E 004°29'7 6.5
2017-Jan-23 10:26N 51°39' E 004°18'8 3.7
2017-Jan-23 08:25N 51°39' E 004°06'7 8.0
2017-Jan-23 07:33N 51°33' E 003°59'6 6.1
2017-Jan-23 06:33N 51°27' E 004°01'7 6.9
2017-Jan-23 05:32N 51°22' E 003°54'5 5.2
2017-Jan-23 04:33N 51°21' E 003°46'0 0.0
2017-Jan-23 03:33N 51°21' E 003°46'0 0.0
2017-Jan-23 02:33N 51°21' E 003°46'  
Track history (hours):
 
Tides and Currents Weather Stations Pressure Air Temp Water Temp Dewpoint Dewpoint Depression Visibility Wind Speed Wind Dir Waves Ship Positions

Cavok V

Last reported at 2017-Jan-23 12:32 UTC. Time now 2017-Mar-25 19:46 UTC.
Position N 51°47' E 004°38'.
Warning: this ship's position is months out of date.

Type: Sailing vessel. MMSI: 244690846.

Date/timePositionNaut miles runAvg speedWind from/ knotsBaromVisibWave heightAir tempDewpointWater temp
2017-Jan-23 12:32N 51°47' E 004°38'8 7.9
2017-Jan-23 11:33N 51°42' E 004°29'7 6.5
2017-Jan-23 10:26N 51°39' E 004°18'8 3.7
2017-Jan-23 08:25N 51°39' E 004°06'7 8.0
2017-Jan-23 07:33N 51°33' E 003°59'6 6.1
2017-Jan-23 06:33N 51°27' E 004°01'7 6.9
2017-Jan-23 05:32N 51°22' E 003°54'5 5.2
2017-Jan-23 04:33N 51°21' E 003°46'0 0.0
2017-Jan-23 03:33N 51°21' E 003°46'0 0.0
2017-Jan-23 02:33N 51°21' E 003°46'  

Dump ship's entire track history